sensor_id;sensor_type;location;lat;lon;timestamp;pressure;altitude;pressure_sealevel;temperature;humidity
55077;BME280;40971;44.702;11.030;2023-05-19T00:00:35;101717.38;;;14.02;92.07
55077;BME280;40971;44.702;11.030;2023-05-19T00:10:40;101705.84;;;14.04;92.85
55077;BME280;40971;44.702;11.030;2023-05-19T00:20:42;101705.28;;;13.92;92.97
55077;BME280;40971;44.702;11.030;2023-05-19T00:30:45;101696.03;;;13.96;92.03
55077;BME280;40971;44.702;11.030;2023-05-19T00:40:46;101701.38;;;14.04;90.59
55077;BME280;40971;44.702;11.030;2023-05-19T00:50:49;101682.69;;;14.14;89.25
55077;BME280;40971;44.702;11.030;2023-05-19T01:00:51;101678.38;;;14.13;89.01
55077;BME280;40971;44.702;11.030;2023-05-19T01:10:55;101675.59;;;14.22;89.75
55077;BME280;40971;44.702;11.030;2023-05-19T01:31:32;101672.78;;;14.08;91.78
55077;BME280;40971;44.702;11.030;2023-05-19T01:41:34;101677.63;;;13.70;92.09
55077;BME280;40971;44.702;11.030;2023-05-19T01:51:38;101682.31;;;13.84;92.47
55077;BME280;40971;44.702;11.030;2023-05-19T02:01:52;101686.44;;;13.87;92.21
55077;BME280;40971;44.702;11.030;2023-05-19T02:12:05;101675.81;;;13.71;92.13
55077;BME280;40971;44.702;11.030;2023-05-19T02:22:10;101678.31;;;13.72;93.13
55077;BME280;40971;44.702;11.030;2023-05-19T02:32:14;101687.91;;;13.81;93.08
55077;BME280;40971;44.702;11.030;2023-05-19T02:42:17;101676.63;;;13.71;91.11
55077;BME280;40971;44.702;11.030;2023-05-19T02:52:19;101675.16;;;13.77;90.90
55077;BME280;40971;44.702;11.030;2023-05-19T03:02:22;101686.72;;;13.68;91.31
55077;BME280;40971;44.702;11.030;2023-05-19T03:12:23;101676.22;;;13.50;91.64
55077;BME280;40971;44.702;11.030;2023-05-19T03:22:27;101683.94;;;13.43;92.43
55077;BME280;40971;44.702;11.030;2023-05-19T03:32:30;101680.66;;;13.41;91.58
55077;BME280;40971;44.702;11.030;2023-05-19T03:42:35;101691.13;;;13.25;93.37
55077;BME280;40971;44.702;11.030;2023-05-19T03:52:39;101682.50;;;12.98;95.07
55077;BME280;40971;44.702;11.030;2023-05-19T04:02:40;101690.13;;;13.01;95.38
55077;BME280;40971;44.702;11.030;2023-05-19T04:12:44;101693.41;;;13.20;96.12
55077;BME280;40971;44.702;11.030;2023-05-19T04:22:48;101705.75;;;13.46;95.21
55077;BME280;40971;44.702;11.030;2023-05-19T04:32:49;101683.34;;;13.58;95.01
55077;BME280;40971;44.702;11.030;2023-05-19T04:42:52;101700.91;;;13.67;94.91
55077;BME280;40971;44.702;11.030;2023-05-19T04:52:53;101710.53;;;13.76;95.02
55077;BME280;40971;44.702;11.030;2023-05-19T05:02:55;101721.28;;;13.82;94.70
55077;BME280;40971;44.702;11.030;2023-05-19T05:12:58;101724.31;;;13.95;94.54
55077;BME280;40971;44.702;11.030;2023-05-19T05:23:00;101738.22;;;14.06;94.42
55077;BME280;40971;44.702;11.030;2023-05-19T05:33:05;101742.25;;;14.26;94.43
55077;BME280;40971;44.702;11.030;2023-05-19T05:43:07;101739.34;;;14.53;94.62
55077;BME280;40971;44.702;11.030;2023-05-19T05:53:14;101746.31;;;14.70;94.21
55077;BME280;40971;44.702;11.030;2023-05-19T06:03:19;101753.56;;;14.60;92.35
55077;BME280;40971;44.702;11.030;2023-05-19T06:13:25;101758.53;;;14.55;91.97
55077;BME280;40971;44.702;11.030;2023-05-19T06:23:29;101766.13;;;14.58;91.11
55077;BME280;40971;44.702;11.030;2023-05-19T06:33:31;101767.47;;;14.70;91.05
55077;BME280;40971;44.702;11.030;2023-05-19T06:43:33;101765.16;;;14.67;90.11
55077;BME280;40971;44.702;11.030;2023-05-19T06:53:35;101766.66;;;14.78;89.74
55077;BME280;40971;44.702;11.030;2023-05-19T07:03:36;101768.97;;;14.97;88.82
55077;BME280;40971;44.702;11.030;2023-05-19T07:13:39;101775.59;;;14.77;88.87
55077;BME280;40971;44.702;11.030;2023-05-19T07:23:40;101783.56;;;14.93;88.10
55077;BME280;40971;44.702;11.030;2023-05-19T07:33:42;101770.97;;;14.63;87.31
55077;BME280;40971;44.702;11.030;2023-05-19T07:43:45;101765.66;;;14.87;90.29
55077;BME280;40971;44.702;11.030;2023-05-19T07:53:47;101787.19;;;15.32;88.90
55077;BME280;40971;44.702;11.030;2023-05-19T08:03:51;101784.31;;;15.42;84.27
55077;BME280;40971;44.702;11.030;2023-05-19T08:13:54;101778.16;;;15.73;81.33
55077;BME280;40971;44.702;11.030;2023-05-19T08:23:58;101789.47;;;15.59;81.85
55077;BME280;40971;44.702;11.030;2023-05-19T08:33:59;101786.81;;;15.27;82.45
55077;BME280;40971;44.702;11.030;2023-05-19T08:44:00;101792.81;;;15.21;82.48
55077;BME280;40971;44.702;11.030;2023-05-19T08:54:22;101791.50;;;14.77;84.37
55077;BME280;40971;44.702;11.030;2023-05-19T09:04:26;101783.22;;;14.96;85.39
55077;BME280;40971;44.702;11.030;2023-05-19T09:14:29;101790.16;;;14.89;86.60
55077;BME280;40971;44.702;11.030;2023-05-19T09:24:33;101795.63;;;14.79;85.51
55077;BME280;40971;44.702;11.030;2023-05-19T09:34:40;101791.31;;;14.78;85.98
55077;BME280;40971;44.702;11.030;2023-05-19T09:44:43;101788.66;;;15.35;86.80
55077;BME280;40971;44.702;11.030;2023-05-19T09:54:44;101780.56;;;15.04;86.75
55077;BME280;40971;44.702;11.030;2023-05-19T10:04:47;101790.50;;;15.18;87.78
55077;BME280;40971;44.702;11.030;2023-05-19T10:14:49;101778.56;;;15.06;89.76
55077;BME280;40971;44.702;11.030;2023-05-19T10:24:55;101774.28;;;14.89;88.27
55077;BME280;40971;44.702;11.030;2023-05-19T10:45:17;101772.06;;;14.52;91.38
55077;BME280;40971;44.702;11.030;2023-05-19T10:55:49;101772.97;;;15.01;90.09
55077;BME280;40971;44.702;11.030;2023-05-19T11:16:28;101775.28;;;14.96;90.83
55077;BME280;40971;44.702;11.030;2023-05-19T11:26:40;101765.34;;;14.98;91.54
55077;BME280;40971;44.702;11.030;2023-05-19T11:36:47;101762.03;;;14.88;91.25
55077;BME280;40971;44.702;11.030;2023-05-19T11:46:49;101758.22;;;14.82;90.71
55077;BME280;40971;44.702;11.030;2023-05-19T11:56:50;101758.38;;;14.81;91.42
55077;BME280;40971;44.702;11.030;2023-05-19T12:06:51;101760.34;;;15.19;91.11
55077;BME280;40971;44.702;11.030;2023-05-19T12:16:52;101748.25;;;15.25;91.27
55077;BME280;40971;44.702;11.030;2023-05-19T12:27:24;101747.13;;;14.79;92.79
55077;BME280;40971;44.702;11.030;2023-05-19T12:37:29;101749.09;;;14.69;94.59
55077;BME280;40971;44.702;11.030;2023-05-19T12:47:34;101747.94;;;14.55;94.33
55077;BME280;40971;44.702;11.030;2023-05-19T12:57:43;101738.50;;;14.52;93.53
55077;BME280;40971;44.702;11.030;2023-05-19T13:07:56;101726.75;;;14.47;93.35
55077;BME280;40971;44.702;11.030;2023-05-19T13:17:57;101726.28;;;14.51;92.06
55077;BME280;40971;44.702;11.030;2023-05-19T13:27:58;101725.28;;;14.69;93.18
55077;BME280;40971;44.702;11.030;2023-05-19T13:38:07;101720.31;;;14.66;93.96
55077;BME280;40971;44.702;11.030;2023-05-19T13:48:11;101704.94;;;14.77;95.96
55077;BME280;40971;44.702;11.030;2023-05-19T13:58:15;101679.63;;;14.83;95.91
55077;BME280;40971;44.702;11.030;2023-05-19T14:08:21;101709.03;;;15.20;97.21
55077;BME280;40971;44.702;11.030;2023-05-19T14:18:28;101692.97;;;16.07;93.42
55077;BME280;40971;44.702;11.030;2023-05-19T14:28:29;101668.16;;;16.23;85.75
55077;BME280;40971;44.702;11.030;2023-05-19T14:38:30;101656.28;;;16.11;85.84
55077;BME280;40971;44.702;11.030;2023-05-19T14:48:31;101668.97;;;16.01;84.96
55077;BME280;40971;44.702;11.030;2023-05-19T14:58:32;101667.19;;;15.93;84.14
55077;BME280;40971;44.702;11.030;2023-05-19T15:08:33;101661.25;;;15.60;84.43
55077;BME280;40971;44.702;11.030;2023-05-19T15:18:34;101653.06;;;15.70;84.73
55077;BME280;40971;44.702;11.030;2023-05-19T15:28:35;101659.13;;;15.48;83.54
55077;BME280;40971;44.702;11.030;2023-05-19T15:38:36;101645.41;;;15.36;81.34
55077;BME280;40971;44.702;11.030;2023-05-19T15:48:37;101617.47;;;15.64;81.91
55077;BME280;40971;44.702;11.030;2023-05-19T15:58:38;101606.03;;;15.64;82.88
55077;BME280;40971;44.702;11.030;2023-05-19T16:08:39;101619.69;;;15.45;83.23
55077;BME280;40971;44.702;11.030;2023-05-19T16:18:40;101628.16;;;15.48;85.58
55077;BME280;40971;44.702;11.030;2023-05-19T16:28:43;101612.75;;;15.36;84.83
55077;BME280;40971;44.702;11.030;2023-05-19T16:38:44;101601.94;;;15.14;85.50
55077;BME280;40971;44.702;11.030;2023-05-19T16:48:45;101610.88;;;15.13;85.48
55077;BME280;40971;44.702;11.030;2023-05-19T16:58:46;101603.81;;;14.98;85.79
55077;BME280;40971;44.702;11.030;2023-05-19T17:08:48;101636.09;;;14.93;86.29
55077;BME280;40971;44.702;11.030;2023-05-19T17:18:49;101615.34;;;15.05;87.05
55077;BME280;40971;44.702;11.030;2023-05-19T17:28:50;101605.50;;;14.83;88.18
55077;BME280;40971;44.702;11.030;2023-05-19T17:38:51;101622.53;;;14.80;88.80
55077;BME280;40971;44.702;11.030;2023-05-19T17:48:52;101631.47;;;14.87;89.32
55077;BME280;40971;44.702;11.030;2023-05-19T17:58:54;101626.66;;;14.83;89.88
55077;BME280;40971;44.702;11.030;2023-05-19T18:08:57;101635.97;;;14.79;90.41
55077;BME280;40971;44.702;11.030;2023-05-19T18:18:58;101642.06;;;14.63;91.36
55077;BME280;40971;44.702;11.030;2023-05-19T18:28:59;101619.09;;;14.55;92.72
55077;BME280;40971;44.702;11.030;2023-05-19T18:39:04;101622.38;;;14.25;92.83
55077;BME280;40971;44.702;11.030;2023-05-19T18:49:05;101625.88;;;14.26;93.89
55077;BME280;40971;44.702;11.030;2023-05-19T18:59:07;101619.41;;;14.28;94.00
55077;BME280;40971;44.702;11.030;2023-05-19T19:09:09;101638.94;;;14.35;94.22
55077;BME280;40971;44.702;11.030;2023-05-19T19:19:10;101636.78;;;14.31;94.43
55077;BME280;40971;44.702;11.030;2023-05-19T19:29:12;101647.56;;;14.37;95.85
55077;BME280;40971;44.702;11.030;2023-05-19T19:39:16;101652.50;;;14.32;96.87
55077;BME280;40971;44.702;11.030;2023-05-19T19:49:17;101655.63;;;14.28;96.67
55077;BME280;40971;44.702;11.030;2023-05-19T19:59:19;101660.56;;;14.23;96.28
55077;BME280;40971;44.702;11.030;2023-05-19T20:09:22;101665.53;;;14.26;95.70
55077;BME280;40971;44.702;11.030;2023-05-19T20:19:23;101661.09;;;14.26;94.51
55077;BME280;40971;44.702;11.030;2023-05-19T20:29:27;101669.81;;;14.27;93.78
55077;BME280;40971;44.702;11.030;2023-05-19T20:39:30;101669.81;;;14.19;94.97
55077;BME280;40971;44.702;11.030;2023-05-19T20:49:31;101674.78;;;14.22;94.40
55077;BME280;40971;44.702;11.030;2023-05-19T20:59:34;101680.56;;;14.17;94.29
55077;BME280;40971;44.702;11.030;2023-05-19T21:09:35;101669.28;;;14.07;94.78
55077;BME280;40971;44.702;11.030;2023-05-19T21:19:37;101666.34;;;14.18;94.11
55077;BME280;40971;44.702;11.030;2023-05-19T21:29:37;101676.13;;;14.26;95.28
55077;BME280;40971;44.702;11.030;2023-05-19T21:39:41;101659.09;;;14.28;95.36
55077;BME280;40971;44.702;11.030;2023-05-19T21:49:44;101664.38;;;14.28;95.00
55077;BME280;40971;44.702;11.030;2023-05-19T21:59:45;101672.69;;;14.33;95.37
55077;BME280;40971;44.702;11.030;2023-05-19T22:09:47;101669.34;;;14.31;94.84
55077;BME280;40971;44.702;11.030;2023-05-19T22:19:49;101668.00;;;14.19;95.29
55077;BME280;40971;44.702;11.030;2023-05-19T22:29:51;101660.72;;;14.13;95.84
55077;BME280;40971;44.702;11.030;2023-05-19T22:39:53;101651.63;;;14.08;96.09
55077;BME280;40971;44.702;11.030;2023-05-19T22:49:55;101641.88;;;14.08;96.14
55077;BME280;40971;44.702;11.030;2023-05-19T22:59:58;101641.53;;;14.11;96.52
55077;BME280;40971;44.702;11.030;2023-05-19T23:10:00;101645.84;;;14.12;96.32
55077;BME280;40971;44.702;11.030;2023-05-19T23:20:01;101624.69;;;14.04;96.12
55077;BME280;40971;44.702;11.030;2023-05-19T23:30:04;101613.91;;;13.81;96.42
55077;BME280;40971;44.702;11.030;2023-05-19T23:40:07;101604.84;;;13.92;97.38
55077;BME280;40971;44.702;11.030;2023-05-19T23:50:09;101606.53;;;14.09;97.41
